Time,TemperatureF,DewpointF,PressureIn,WindDirection,WindDirectionDegrees,WindSpeedMPH,WindSpeedGustMPH,Humidity,HourlyPrecipIn,Conditions,Clouds,dailyrainin,SoftwareType,DateUTC
2013-04-24 00:02:00,46.9,37.0,30.28,West,262,1.0,2.0,69,0.00,,,0.00,weatherlink.com 1.10,2013-04-24 07:02:00,
2013-04-24 00:17:00,47.2,37.0,30.28,West,276,1.0,3.0,68,0.00,,,0.00,weatherlink.com 1.10,2013-04-24 07:17:00,
2013-04-24 00:32:00,46.5,37.0,30.28,SW,232,0.0,3.0,70,0.00,,,0.00,weatherlink.com 1.10,2013-04-24 07:32:00,
2013-04-24 00:47:00,44.9,38.0,30.28,SSW,211,0.0,2.0,76,0.00,,,0.00,weatherlink.com 1.10,2013-04-24 07:47:00,
2013-04-24 01:02:00,44.2,38.0,30.29,SSW,211,0.0,1.0,78,0.00,,,0.00,weatherlink.com 1.10,2013-04-24 08:02:00,
2013-04-24 01:17:00,43.3,37.0,30.29,West,273,1.0,3.0,79,0.00,,,0.00,weatherlink.com 1.10,2013-04-24 08:17:00,
2013-04-24 01:32:00,43.2,37.0,30.29,West,278,0.0,0.0,80,0.00,,,0.00,weatherlink.com 1.10,2013-04-24 08:32:00,
2013-04-24 01:48:00,42.3,37.0,30.29,West,264,1.0,2.0,80,0.00,,,0.00,weatherlink.com 1.10,2013-04-24 08:48:00,
2013-04-24 02:03:00,42.4,37.0,30.29,West,259,0.0,0.0,82,0.00,,,0.00,weatherlink.com 1.10,2013-04-24 09:03:00,
2013-04-24 02:18:00,41.7,37.0,30.29,West,264,1.0,2.0,82,0.00,,,0.00,weatherlink.com 1.10,2013-04-24 09:18:00,
2013-04-24 02:33:00,41.8,37.0,30.29,West,263,0.0,1.0,82,0.00,,,0.00,weatherlink.com 1.10,2013-04-24 09:33:00,
2013-04-24 02:48:00,41.1,36.0,30.29,West,262,0.0,1.0,83,0.00,,,0.00,weatherlink.com 1.10,2013-04-24 09:48:00,
2013-04-24 03:03:00,40.6,37.0,30.29,West,263,0.0,1.0,86,0.00,,,0.00,weatherlink.com 1.10,2013-04-24 10:03:00,
2013-04-24 03:18:00,40.1,37.0,30.29,WSW,250,0.0,1.0,87,0.00,,,0.00,weatherlink.com 1.10,2013-04-24 10:18:00,
2013-04-24 03:33:00,40.3,37.0,30.30,WSW,249,0.0,1.0,87,0.00,,,0.00,weatherlink.com 1.10,2013-04-24 10:33:00,
2013-04-24 03:48:00,39.8,37.0,30.30,WSW,256,1.0,1.0,89,0.00,,,0.00,weatherlink.com 1.10,2013-04-24 10:48:00,
2013-04-24 04:03:00,39.3,37.0,30.30,WSW,254,0.0,1.0,90,0.00,,,0.00,weatherlink.com 1.10,2013-04-24 11:03:00,
2013-04-24 04:18:00,39.1,37.0,30.30,West,264,1.0,2.0,90,0.00,,,0.00,weatherlink.com 1.10,2013-04-24 11:18:00,
2013-04-24 04:33:00,38.8,36.0,30.30,West,263,2.0,2.0,91,0.00,,,0.00,weatherlink.com 1.10,2013-04-24 11:33:00,
2013-04-24 04:48:00,39.0,37.0,30.31,West,270,0.0,2.0,92,0.00,,,0.00,weatherlink.com 1.10,2013-04-24 11:48:00,
2013-04-24 05:03:00,38.8,37.0,30.31,West,264,0.0,2.0,93,0.00,,,0.00,weatherlink.com 1.10,2013-04-24 12:03:00,
2013-04-24 05:18:00,38.7,37.0,30.31,West,264,1.0,1.0,93,0.00,,,0.00,weatherlink.com 1.10,2013-04-24 12:18:00,
2013-04-24 05:33:00,37.8,36.0,30.31,West,260,1.0,2.0,94,0.00,,,0.00,weatherlink.com 1.10,2013-04-24 12:33:00,
2013-04-24 05:48:00,38.1,36.0,30.31,West,276,2.0,3.0,93,0.00,,,0.00,weatherlink.com 1.10,2013-04-24 12:48:00,
2013-04-24 06:03:00,38.1,37.0,30.30,West,269,2.0,2.0,94,0.00,,,0.00,weatherlink.com 1.10,2013-04-24 13:03:00,
2013-04-24 06:18:00,38.1,37.0,30.30,West,270,1.0,1.0,95,0.00,,,0.00,weatherlink.com 1.10,2013-04-24 13:18:00,
2013-04-24 06:33:00,38.3,37.0,30.30,West,267,0.0,1.0,95,0.00,,,0.00,weatherlink.com 1.10,2013-04-24 13:33:00,
2013-04-24 06:48:00,39.8,38.0,30.30,WSW,248,0.0,0.0,93,0.00,,,0.00,weatherlink.com 1.10,2013-04-24 13:48:00,
2013-04-24 07:03:00,42.2,39.0,30.30,South,170,0.0,2.0,89,0.00,,,0.00,weatherlink.com 1.10,2013-04-24 14:03:00,
2013-04-24 07:18:00,45.3,41.0,30.30,SSW,203,0.0,0.0,86,0.00,,,0.00,weatherlink.com 1.10,2013-04-24 14:18:00,
2013-04-24 07:33:00,49.0,42.0,30.30,SSW,203,0.0,0.0,77,0.00,,,0.00,weatherlink.com 1.10,2013-04-24 14:33:00,
2013-04-24 07:48:00,46.2,41.0,30.30,NE,46,1.0,2.0,81,0.00,,,0.00,weatherlink.com 1.10,2013-04-24 14:48:00,
2013-04-24 08:03:00,45.9,41.0,30.30,NE,46,1.0,2.0,83,0.00,,,0.00,weatherlink.com 1.10,2013-04-24 15:03:00,
2013-04-24 08:18:00,46.3,42.0,30.30,NE,36,2.0,2.0,84,0.00,,,0.00,weatherlink.com 1.10,2013-04-24 15:18:00,
2013-04-24 08:33:00,46.6,42.0,30.30,NE,35,0.0,1.0,84,0.00,,,0.00,weatherlink.com 1.10,2013-04-24 15:33:00,
2013-04-24 08:48:00,51.0,43.0,30.29,SSE,155,2.0,2.0,75,0.00,,,0.00,weatherlink.com 1.10,2013-04-24 15:48:00,
2013-04-24 09:04:00,53.2,43.0,30.29,SSE,160,0.0,0.0,68,0.00,,,0.00,weatherlink.com 1.10,2013-04-24 16:04:00,
2013-04-24 09:19:00,52.4,43.0,30.29,NE,39,0.0,3.0,71,0.00,,,0.00,weatherlink.com 1.10,2013-04-24 16:19:00,
2013-04-24 09:34:00,52.6,44.0,30.28,ENE,71,1.0,1.0,73,0.00,,,0.00,weatherlink.com 1.10,2013-04-24 16:34:00,
2013-04-24 09:49:00,53.3,42.0,30.28,ESE,121,2.0,4.0,66,0.00,,,0.00,weatherlink.com 1.10,2013-04-24 16:49:00,
2013-04-24 10:04:00,54.1,42.0,30.27,East,95,2.0,3.0,65,0.00,,,0.00,weatherlink.com 1.10,2013-04-24 17:04:00,
2013-04-24 10:19:00,55.5,42.0,30.27,SE,146,0.0,1.0,62,0.00,,,0.00,weatherlink.com 1.10,2013-04-24 17:19:00,
2013-04-24 10:34:00,57.0,43.0,30.27,East,95,0.0,1.0,61,0.00,,,0.00,weatherlink.com 1.10,2013-04-24 17:34:00,
2013-04-24 10:49:00,56.6,44.0,30.26,ENE,76,0.0,2.0,62,0.00,,,0.00,weatherlink.com 1.10,2013-04-24 17:49:00,
2013-04-24 11:04:00,56.5,43.0,30.26,ENE,72,0.0,3.0,61,0.00,,,0.00,weatherlink.com 1.10,2013-04-24 18:04:00,
2013-04-24 11:19:00,57.2,44.0,30.26,ENE,74,1.0,3.0,61,0.00,,,0.00,weatherlink.com 1.10,2013-04-24 18:19:00,
2013-04-24 11:34:00,58.8,43.0,30.25,SE,126,1.0,1.0,57,0.00,,,0.00,weatherlink.com 1.10,2013-04-24 18:34:00,
2013-04-24 11:49:00,59.1,43.0,30.25,NE,47,1.0,1.0,56,0.00,,,0.00,weatherlink.com 1.10,2013-04-24 18:49:00,
2013-04-24 12:04:00,60.5,44.0,30.24,SE,139,0.0,1.0,54,0.00,,,0.00,weatherlink.com 1.10,2013-04-24 19:04:00,
2013-04-24 12:19:00,61.1,43.0,30.23,East,94,0.0,4.0,52,0.00,,,0.00,weatherlink.com 1.10,2013-04-24 19:19:00,
2013-04-24 12:34:00,61.9,43.0,30.22,SSE,165,1.0,3.0,50,0.00,,,0.00,weatherlink.com 1.10,2013-04-24 19:34:00,
2013-04-24 12:49:00,63.3,41.0,30.22,ENE,70,1.0,1.0,44,0.00,,,0.00,weatherlink.com 1.10,2013-04-24 19:49:00,
2013-04-24 13:04:00,64.4,39.0,30.21,NE,39,0.0,1.0,39,0.00,,,0.00,weatherlink.com 1.10,2013-04-24 20:04:00,
2013-04-24 13:19:00,63.9,37.0,30.20,SW,233,0.0,3.0,37,0.00,,,0.00,weatherlink.com 1.10,2013-04-24 20:19:00,
2013-04-24 13:34:00,63.8,38.0,30.20,SSE,152,4.0,6.0,38,0.00,,,0.00,weatherlink.com 1.10,2013-04-24 20:34:00,
2013-04-24 13:49:00,63.7,39.0,30.20,SSE,151,3.0,7.0,40,0.00,,,0.00,weatherlink.com 1.10,2013-04-24 20:49:00,
2013-04-24 14:04:00,63.8,39.0,30.19,SE,145,4.0,5.0,41,0.00,,,0.00,weatherlink.com 1.10,2013-04-24 21:04:00,
2013-04-24 14:19:00,64.3,38.0,30.18,ESE,111,8.0,8.0,38,0.00,,,0.00,weatherlink.com 1.10,2013-04-24 21:19:00,
2013-04-24 14:35:00,64.9,37.0,30.18,SE,146,1.0,5.0,36,0.00,,,0.00,weatherlink.com 1.10,2013-04-24 21:35:00,
2013-04-24 14:50:00,64.7,36.0,30.17,NNW,346,4.0,14.0,35,0.00,,,0.00,weatherlink.com 1.10,2013-04-24 21:50:00,
2013-04-24 15:05:00,64.8,36.0,30.16,ENE,66,4.0,5.0,34,0.00,,,0.00,weatherlink.com 1.10,2013-04-24 22:05:00,
2013-04-24 15:20:00,64.7,35.0,30.16,ESE,113,1.0,5.0,33,0.00,,,0.00,weatherlink.com 1.10,2013-04-24 22:20:00,
2013-04-24 15:35:00,64.9,33.0,30.15,ENE,67,2.0,5.0,31,0.00,,,0.00,weatherlink.com 1.10,2013-04-24 22:35:00,
2013-04-24 15:50:00,65.2,32.0,30.14,NNE,16,3.0,7.0,29,0.00,,,0.00,weatherlink.com 1.10,2013-04-24 22:50:00,
2013-04-24 16:05:00,65.1,34.0,30.14,ENE,65,2.0,5.0,31,0.00,,,0.00,weatherlink.com 1.10,2013-04-24 23:05:00,
2013-04-24 16:20:00,65.5,35.0,30.13,NNE,16,0.0,6.0,32,0.00,,,0.00,weatherlink.com 1.10,2013-04-24 23:20:00,
2013-04-24 16:35:00,65.7,36.0,30.12,SSE,153,5.0,9.0,33,0.00,,,0.00,weatherlink.com 1.10,2013-04-24 23:35:00,
2013-04-24 16:50:00,65.5,35.0,30.11,ESE,112,4.0,8.0,32,0.00,,,0.00,weatherlink.com 1.10,2013-04-24 23:50:00,
2013-04-24 17:05:00,65.1,34.0,30.10,ESE,108,6.0,8.0,32,0.00,,,0.00,weatherlink.com 1.10,2013-04-25 00:05:00,
2013-04-24 17:20:00,64.3,35.0,30.10,NE,44,6.0,7.0,34,0.00,,,0.00,weatherlink.com 1.10,2013-04-25 00:20:00,
2013-04-24 17:35:00,64.3,37.0,30.10,ENE,58,3.0,6.0,36,0.00,,,0.00,weatherlink.com 1.10,2013-04-25 00:35:00,
2013-04-24 17:50:00,64.0,36.0,30.10,North,6,4.0,10.0,35,0.00,,,0.00,weatherlink.com 1.10,2013-04-25 00:50:00,
2013-04-24 18:05:00,63.8,36.0,30.09,NE,36,3.0,11.0,36,0.00,,,0.00,weatherlink.com 1.10,2013-04-25 01:05:00,
2013-04-24 18:20:00,63.9,34.0,30.09,North,360,10.0,11.0,33,0.00,,,0.00,weatherlink.com 1.10,2013-04-25 01:20:00,
2013-04-24 18:35:00,63.3,36.0,30.08,NNE,24,8.0,11.0,36,0.00,,,0.00,weatherlink.com 1.10,2013-04-25 01:35:00,
2013-04-24 18:50:00,63.2,35.0,30.08,NE,46,5.0,8.0,35,0.00,,,0.00,weatherlink.com 1.10,2013-04-25 01:50:00,
2013-04-24 19:05:00,63.0,35.0,30.08,NNE,32,4.0,8.0,35,0.00,,,0.00,weatherlink.com 1.10,2013-04-25 02:05:00,
2013-04-24 19:20:00,62.7,33.0,30.07,NE,37,6.0,8.0,33,0.00,,,0.00,weatherlink.com 1.10,2013-04-25 02:20:00,
2013-04-24 19:35:00,61.6,36.0,30.07,NW,323,2.0,5.0,39,0.00,,,0.00,weatherlink.com 1.10,2013-04-25 02:35:00,
2013-04-24 19:50:00,61.1,35.0,30.07,North,4,2.0,3.0,38,0.00,,,0.00,weatherlink.com 1.10,2013-04-25 02:50:00,
2013-04-24 20:05:00,59.7,36.0,30.06,NW,311,0.0,2.0,41,0.00,,,0.00,weatherlink.com 1.10,2013-04-25 03:05:00,
2013-04-24 20:20:00,57.5,34.0,30.06,West,267,2.0,3.0,42,0.00,,,0.00,weatherlink.com 1.10,2013-04-25 03:20:00,
2013-04-24 20:35:00,55.6,37.0,30.07,West,266,0.0,0.0,50,0.00,,,0.00,weatherlink.com 1.10,2013-04-25 03:35:00,
2013-04-24 20:50:00,54.4,35.0,30.06,West,277,2.0,3.0,48,0.00,,,0.00,weatherlink.com 1.10,2013-04-25 03:50:00,
2013-04-24 21:05:00,53.6,35.0,30.06,WSW,245,0.0,2.0,50,0.00,,,0.00,weatherlink.com 1.10,2013-04-25 04:05:00,
2013-04-24 21:20:00,52.7,36.0,30.06,West,264,0.0,1.0,54,0.00,,,0.00,weatherlink.com 1.10,2013-04-25 04:20:00,
2013-04-24 21:35:00,51.9,35.0,30.06,SW,231,1.0,2.0,53,0.00,,,0.00,weatherlink.com 1.10,2013-04-25 04:35:00,
2013-04-24 21:50:00,51.6,35.0,30.06,West,276,1.0,2.0,54,0.00,,,0.00,weatherlink.com 1.10,2013-04-25 04:50:00,
2013-04-24 22:05:00,50.7,35.0,30.06,West,260,1.0,2.0,55,0.00,,,0.00,weatherlink.com 1.10,2013-04-25 05:05:00,
2013-04-24 22:20:00,50.6,35.0,30.06,West,273,0.0,2.0,56,0.00,,,0.00,weatherlink.com 1.10,2013-04-25 05:20:00,
2013-04-24 22:35:00,50.1,35.0,30.06,West,273,1.0,1.0,57,0.00,,,0.00,weatherlink.com 1.10,2013-04-25 05:35:00,
2013-04-24 22:50:00,49.4,35.0,30.05,West,269,2.0,2.0,58,0.00,,,0.00,weatherlink.com 1.10,2013-04-25 05:50:00,
2013-04-24 23:05:00,48.8,39.0,30.05,West,274,0.0,0.0,68,0.00,,,0.00,weatherlink.com 1.10,2013-04-25 06:05:00,
2013-04-24 23:20:00,48.0,37.0,30.05,West,274,1.0,2.0,65,0.00,,,0.00,weatherlink.com 1.10,2013-04-25 06:20:00,
2013-04-24 23:35:00,47.4,36.0,30.05,West,270,1.0,1.0,66,0.00,,,0.00,weatherlink.com 1.10,2013-04-25 06:35:00,
2013-04-24 23:50:00,47.2,36.0,30.05,West,264,0.0,1.0,65,0.00,,,0.00,weatherlink.com 1.10,2013-04-25 06:50:00,